Time;durP1;ratioP1;P1;durP2;ratioP2;P2;SDS_P1;SDS_P2;PMS_P1;PMS_P2;Temp;Humidity;BMP_temperature;BMP_pressure;BME280_temperature;BME280_humidity;BME280_pressure;Samples;Min_cycle;Max_cycle;Signal;HPM_P1;HPM_P2
2024/01/03 00:00:40;;;;;;;18.63;3.05;;;;;;;;;;4959956;29;20039;-56
2024/01/03 00:03:05;;;;;;;15.90;3.53;;;;;;;;;;4957434;29;20046;-54
2024/01/03 00:05:36;;;;;;;17.10;4.10;;;;;;;;;;4959854;29;20331;-54
2024/01/03 00:08:03;;;;;;;22.47;3.43;;;;;;;;;;4965538;29;20027;-55
2024/01/03 00:10:45;;;;;;;15.43;2.63;;;;;;;;;;4960082;29;20278;-56
2024/01/03 00:13:32;;;;;;;18.73;3.67;;;;;;;;;;4957280;29;20293;-55
2024/01/03 00:15:57;;;;;;;17.85;3.88;;;;;;;;;;4967167;29;20266;-56
2024/01/03 00:18:35;;;;;;;29.67;4.13;;;;;;;;;;4963327;29;20042;-56
2024/01/03 00:21:00;;;;;;;29.85;3.80;;;;;;;;;;4958979;29;20031;-57
2024/01/03 00:23:26;;;;;;;;;;;;;;;;;;4957918;29;20055;-53
2024/01/03 00:25:52;;;;;;;23.65;4.43;;;;;;;;;;4944555;29;19939;-53
2024/01/03 00:28:17;;;;;;;22.33;2.90;;;;;;;;;;4956988;29;20035;-56
2024/01/03 00:30:42;;;;;;;24.65;3.90;;;;;;;;;;4957660;29;20043;-52
2024/01/03 00:33:08;;;;;;;26.07;2.80;;;;;;;;;;4968983;29;20067;-53
2024/01/03 00:35:34;;;;;;;22.80;2.92;;;;;;;;;;4961829;29;20038;-55
2024/01/03 00:37:59;;;;;;;20.63;2.88;;;;;;;;;;4958872;29;20016;-54
2024/01/03 00:40:31;;;;;;;15.65;2.80;;;;;;;;;;4940076;29;20094;-54
2024/01/03 00:42:56;;;;;;;24.20;3.40;;;;;;;;;;4940252;29;20046;-56
2024/01/03 00:45:22;;;;;;;16.87;3.07;;;;;;;;;;4947908;29;20302;-56
2024/01/03 00:47:47;;;;;;;22.65;3.47;;;;;;;;;;4932088;29;20039;-53
2024/01/03 00:50:14;;;;;;;18.93;4.17;;;;;;;;;;4944607;29;20027;-53
2024/01/03 00:52:39;;;;;;;15.35;3.70;;;;;;;;;;4941045;29;20099;-55
2024/01/03 00:55:04;;;;;;;23.93;3.90;;;;;;;;;;4965015;29;20035;-57
2024/01/03 00:57:30;;;;;;;18.70;3.63;;;;;;;;;;4941719;29;20027;-55
2024/01/03 00:59:56;;;;;;;18.38;4.22;;;;;;;;;;4958133;29;20031;-55
2024/01/03 01:02:21;;;;;;;25.50;4.07;;;;;;;;;;4940188;29;20070;-54
2024/01/03 01:04:48;;;;;;;21.40;3.78;;;;;;;;;;4960572;29;20031;-56
2024/01/03 01:07:14;;;;;;;26.33;3.70;;;;;;;;;;4965052;29;20055;-55
2024/01/03 01:09:40;;;;;;;25.27;4.45;;;;;;;;;;4969909;29;20063;-57
2024/01/03 01:12:05;;;;;;;21.67;3.40;;;;;;;;;;4933154;29;20051;-52
2024/01/03 01:14:30;;;;;;;25.87;4.77;;;;;;;;;;4940767;29;20055;-55
2024/01/03 01:16:56;;;;;;;23.47;3.40;;;;;;;;;;4961306;29;20063;-53
2024/01/03 01:19:21;;;;;;;23.23;3.97;;;;;;;;;;4958796;29;20083;-52
2024/01/03 01:21:46;;;;;;;29.40;4.47;;;;;;;;;;4945119;29;20040;-56
2024/01/03 01:24:12;;;;;;;25.63;4.10;;;;;;;;;;4940917;29;20027;-57
2024/01/03 01:26:37;;;;;;;22.53;4.67;;;;;;;;;;4965492;29;20037;-54
2024/01/03 01:29:03;;;;;;;19.75;4.28;;;;;;;;;;4944452;29;20266;-55
2024/01/03 01:31:28;;;;;;;30.53;4.40;;;;;;;;;;4959003;29;20031;-54
2024/01/03 01:33:54;;;;;;;26.95;4.10;;;;;;;;;;4956970;29;20031;-56
2024/01/03 01:36:20;;;;;;;30.20;5.30;;;;;;;;;;4962461;29;20035;-55
2024/01/03 01:38:47;;;;;;;33.75;5.72;;;;;;;;;;4956100;29;20028;-56
2024/01/03 01:41:12;;;;;;;30.33;5.17;;;;;;;;;;4944782;29;20042;-53
2024/01/03 01:43:38;;;;;;;31.58;4.78;;;;;;;;;;4957109;29;20750;-53
2024/01/03 01:46:04;;;;;;;27.30;6.40;;;;;;;;;;4962044;29;20055;-52
2024/01/03 01:48:29;;;;;;;34.05;5.13;;;;;;;;;;4945052;29;20090;-55
2024/01/03 01:50:54;;;;;;;26.57;5.20;;;;;;;;;;4968445;28;20046;-54
2024/01/03 01:53:20;;;;;;;43.40;5.07;;;;;;;;;;4942799;29;20038;-54
2024/01/03 01:55:45;;;;;;;23.07;4.27;;;;;;;;;;4947241;29;20031;-55
2024/01/03 01:58:11;;;;;;;28.07;7.10;;;;;;;;;;4964371;29;20147;-54
2024/01/03 02:00:37;;;;;;;31.90;5.03;;;;;;;;;;4941955;29;20036;-56
2024/01/03 02:03:03;;;;;;;31.60;4.50;;;;;;;;;;4928723;29;20028;-56
2024/01/03 02:05:28;;;;;;;28.30;4.77;;;;;;;;;;4951924;29;20278;-55
2024/01/03 02:07:54;;;;;;;32.42;3.90;;;;;;;;;;4965056;29;20035;-57
2024/01/03 02:10:20;;;;;;;28.05;5.15;;;;;;;;;;4958509;29;20062;-55
2024/01/03 02:12:45;;;;;;;24.08;5.47;;;;;;;;;;4942878;29;20024;-56
2024/01/03 02:15:11;;;;;;;26.30;4.10;;;;;;;;;;4949253;29;20054;-56
2024/01/03 02:17:38;;;;;;;28.35;4.05;;;;;;;;;;4935811;29;20035;-54
2024/01/03 02:20:04;;;;;;;28.83;3.97;;;;;;;;;;4958809;29;20116;-55
2024/01/03 02:22:30;;;;;;;32.75;5.35;;;;;;;;;;4958830;29;20262;-55
2024/01/03 02:24:55;;;;;;;43.35;6.60;;;;;;;;;;4947577;29;20035;-54
2024/01/03 02:27:21;;;;;;;41.70;6.83;;;;;;;;;;4965091;29;20038;-56
2024/01/03 02:29:46;;;;;;;36.17;5.60;;;;;;;;;;4968711;29;20090;-54
2024/01/03 02:32:12;;;;;;;25.67;4.67;;;;;;;;;;4958629;29;20317;-53
2024/01/03 02:34:37;;;;;;;32.10;4.07;;;;;;;;;;4958732;29;20270;-55
2024/01/03 02:37:03;;;;;;;32.58;5.13;;;;;;;;;;4963725;29;20030;-55
2024/01/03 02:39:29;;;;;;;27.17;5.75;;;;;;;;;;4970977;29;20046;-54
2024/01/03 02:41:54;;;;;;;25.10;5.43;;;;;;;;;;4969752;29;20032;-55
2024/01/03 02:44:23;;;;;;;46.27;6.73;;;;;;;;;;4960136;29;20278;-52
2024/01/03 02:46:49;;;;;;;25.93;4.27;;;;;;;;;;4960595;29;20038;-55
2024/01/03 02:49:14;;;;;;;30.83;4.90;;;;;;;;;;4959744;29;20270;-56
2024/01/03 02:51:39;;;;;;;25.43;3.80;;;;;;;;;;4940095;29;20274;-52
2024/01/03 02:54:04;;;;;;;20.43;4.00;;;;;;;;;;4944369;29;20055;-54
2024/01/03 02:56:30;;;;;;;20.70;3.87;;;;;;;;;;4976915;29;20112;-55
2024/01/03 02:58:55;;;;;;;22.60;3.70;;;;;;;;;;4964275;29;20027;-53
2024/01/03 03:01:21;;;;;;;25.83;4.20;;;;;;;;;;4970793;29;20055;-55
2024/01/03 03:03:46;;;;;;;27.97;4.80;;;;;;;;;;4960720;29;20103;-56
2024/01/03 03:06:11;;;;;;;22.80;3.73;;;;;;;;;;4972405;29;20027;-56
2024/01/03 03:08:37;;;;;;;26.13;4.38;;;;;;;;;;4964663;29;20047;-56
2024/01/03 03:11:04;;;;;;;27.30;5.40;;;;;;;;;;4959023;29;20056;-55
2024/01/03 03:13:29;;;;;;;29.58;5.22;;;;;;;;;;4958239;29;20046;-55
2024/01/03 03:15:54;;;;;;;32.90;5.23;;;;;;;;;;4950474;29;20091;-56
2024/01/03 03:18:19;;;;;;;23.87;4.77;;;;;;;;;;4964579;29;20039;-54
2024/01/03 03:20:45;;;;;;;33.13;6.63;;;;;;;;;;4958021;29;20023;-54
2024/01/03 03:23:11;;;;;;;27.70;4.93;;;;;;;;;;4958466;29;20046;-54
2024/01/03 03:25:36;;;;;;;35.30;5.90;;;;;;;;;;4963158;29;20031;-55
2024/01/03 03:28:07;;;;;;;35.58;5.63;;;;;;;;;;4967240;29;20035;-54
2024/01/03 03:30:33;;;;;;;32.20;5.50;;;;;;;;;;4952642;29;20036;-54
2024/01/03 03:32:58;;;;;;;38.45;5.60;;;;;;;;;;4957901;29;20346;-57
2024/01/03 03:35:23;;;;;;;23.73;5.50;;;;;;;;;;4961449;29;20039;-55
2024/01/03 03:37:49;;;;;;;35.38;5.85;;;;;;;;;;4960564;29;20491;-54
2024/01/03 03:40:14;;;;;;;30.48;7.10;;;;;;;;;;4975620;29;20027;-55
2024/01/03 03:42:44;;;;;;;34.77;4.87;;;;;;;;;;4960185;29;20087;-54
2024/01/03 03:45:09;;;;;;;39.73;5.70;;;;;;;;;;4958920;29;20036;-54
2024/01/03 03:47:35;;;;;;;23.63;4.40;;;;;;;;;;4961231;29;20281;-56
2024/01/03 03:50:00;;;;;;;30.83;4.60;;;;;;;;;;4962135;29;20063;-56
2024/01/03 03:52:25;;;;;;;38.87;5.33;;;;;;;;;;4958742;29;20546;-57
2024/01/03 03:54:51;;;;;;;29.02;4.97;;;;;;;;;;4970345;29;20033;-56
2024/01/03 03:57:16;;;;;;;42.57;4.77;;;;;;;;;;4971291;29;20039;-56
2024/01/03 03:59:42;;;;;;;33.38;5.93;;;;;;;;;;4968208;29;20554;-57
2024/01/03 04:02:08;;;;;;;39.65;4.85;;;;;;;;;;4965052;29;20087;-56
2024/01/03 04:04:33;;;;;;;35.60;4.33;;;;;;;;;;4969987;29;20059;-54
2024/01/03 04:06:58;;;;;;;21.40;5.00;;;;;;;;;;4966495;29;20261;-52
2024/01/03 04:09:26;;;;;;;37.53;6.70;;;;;;;;;;4957574;29;20039;-54
2024/01/03 04:11:51;;;;;;;34.93;5.60;;;;;;;;;;4956673;29;20031;-52
2024/01/03 04:14:16;;;;;;;35.13;5.57;;;;;;;;;;4957615;29;20274;-56
2024/01/03 04:16:42;;;;;;;43.42;6.03;;;;;;;;;;4965930;29;20070;-56
2024/01/03 04:19:08;;;;;;;37.27;5.60;;;;;;;;;;4967444;29;20034;-55
2024/01/03 04:21:33;;;;;;;33.67;5.23;;;;;;;;;;4956810;29;20046;-55
2024/01/03 04:23:58;;;;;;;34.13;5.70;;;;;;;;;;4957088;29;20083;-56
2024/01/03 04:26:24;;;;;;;40.20;5.93;;;;;;;;;;4961894;29;20035;-56
2024/01/03 04:28:50;;;;;;;30.98;7.30;;;;;;;;;;4959628;29;20059;-57
2024/01/03 04:31:15;;;;;;;42.28;5.15;;;;;;;;;;4971158;29;20043;-54
2024/01/03 04:33:41;;;;;;;31.77;6.10;;;;;;;;;;4963843;29;20023;-53
2024/01/03 04:36:07;;;;;;;30.10;6.03;;;;;;;;;;4963574;29;20059;-56
2024/01/03 04:38:32;;;;;;;29.52;4.20;;;;;;;;;;4967335;29;20220;-56
2024/01/03 04:40:57;;;;;;;34.33;4.47;;;;;;;;;;4956869;29;20048;-56
2024/01/03 04:43:23;;;;;;;29.65;4.78;;;;;;;;;;4964843;29;20028;-57
2024/01/03 04:45:48;;;;;;;31.23;5.60;;;;;;;;;;4967978;29;20043;-53
2024/01/03 04:48:14;;;;;;;33.70;5.60;;;;;;;;;;4965186;29;20051;-54
2024/01/03 04:50:39;;;;;;;35.40;8.68;;;;;;;;;;4939981;29;20071;-57
2024/01/03 04:53:04;;;;;;;33.80;7.80;;;;;;;;;;4961380;29;20056;-52
2024/01/03 04:55:30;;;;;;;29.40;8.03;;;;;;;;;;4972084;29;20031;-55
2024/01/03 04:57:55;;;;;;;36.50;8.57;;;;;;;;;;4963408;29;20043;-55
2024/01/03 05:00:21;;;;;;;31.60;7.55;;;;;;;;;;4966724;29;20035;-55
2024/01/03 05:02:46;;;;;;;37.80;6.35;;;;;;;;;;4956837;29;20039;-53
2024/01/03 05:05:12;;;;;;;37.47;6.33;;;;;;;;;;4956712;29;20023;-57
2024/01/03 05:07:37;;;;;;;34.57;5.57;;;;;;;;;;4956498;29;20472;-54
2024/01/03 05:10:03;;;;;;;23.00;5.25;;;;;;;;;;4940422;29;20036;-54
2024/01/03 05:12:28;;;;;;;22.30;4.83;;;;;;;;;;4959259;29;20062;-51
2024/01/03 05:14:53;;;;;;;41.77;5.77;;;;;;;;;;4963189;29;20065;-50
2024/01/03 05:17:19;;;;;;;31.85;6.90;;;;;;;;;;4961530;29;20027;-54
2024/01/03 05:19:45;;;;;;;24.60;3.95;;;;;;;;;;4963748;29;20047;-55
2024/01/03 05:22:10;;;;;;;30.20;5.17;;;;;;;;;;4956358;29;20067;-56
2024/01/03 05:24:36;;;;;;;23.48;4.72;;;;;;;;;;4956321;29;20040;-57
2024/01/03 05:27:02;;;;;;;27.23;4.20;;;;;;;;;;4960192;29;20036;-55
2024/01/03 05:29:27;;;;;;;41.05;4.30;;;;;;;;;;4968714;29;20055;-55
2024/01/03 05:31:53;;;;;;;30.50;4.83;;;;;;;;;;4964785;29;20042;-54
2024/01/03 05:34:18;;;;;;;35.23;4.23;;;;;;;;;;4969714;29;20027;-55
2024/01/03 05:36:43;;;;;;;19.13;3.23;;;;;;;;;;4971364;29;20042;-52
2024/01/03 05:39:12;;;;;;;28.73;3.93;;;;;;;;;;4967838;29;20273;-53
2024/01/03 05:41:37;;;;;;;20.40;3.63;;;;;;;;;;4970246;29;20031;-51
2024/01/03 05:44:03;;;;;;;21.35;3.10;;;;;;;;;;4960086;29;20391;-55
2024/01/03 05:46:28;;;;;;;22.73;3.53;;;;;;;;;;4963863;29;20068;-55
2024/01/03 05:48:54;;;;;;;18.57;2.80;;;;;;;;;;4961263;29;20333;-53
2024/01/03 05:51:20;;;;;;;15.98;2.95;;;;;;;;;;4959864;29;20143;-54
2024/01/03 05:53:49;;;;;;;18.07;2.40;;;;;;;;;;4965177;29;20031;-57
2024/01/03 05:56:15;;;;;;;19.67;2.50;;;;;;;;;;4967030;29;20301;-52
2024/01/03 05:58:44;;;;;;;13.73;3.20;;;;;;;;;;4970615;29;20268;-52
2024/01/03 06:01:09;;;;;;;18.17;3.20;;;;;;;;;;4959629;29;20028;-54
2024/01/03 06:03:35;;;;;;;14.95;2.63;;;;;;;;;;4959300;29;20269;-54
2024/01/03 06:06:00;;;;;;;19.60;4.60;;;;;;;;;;4973594;29;20035;-56
2024/01/03 06:08:26;;;;;;;20.25;2.47;;;;;;;;;;4946286;29;20146;-58
2024/01/03 06:10:51;;;;;;;7.83;2.90;;;;;;;;;;4973471;29;20035;-56
2024/01/03 06:13:17;;;;;;;13.93;2.77;;;;;;;;;;4972305;29;20289;-56
2024/01/03 06:15:43;;;;;;;16.63;3.75;;;;;;;;;;4975055;29;20078;-53
2024/01/03 06:18:10;;;;;;;9.90;3.03;;;;;;;;;;4971122;29;20031;-52
2024/01/03 06:20:36;;;;;;;15.87;2.53;;;;;;;;;;4959370;29;20286;-58
2024/01/03 06:23:01;;;;;;;11.67;1.90;;;;;;;;;;4965573;29;20261;-52
2024/01/03 06:25:27;;;;;;;11.37;2.53;;;;;;;;;;4974950;29;20281;-52
2024/01/03 06:27:53;;;;;;;7.22;2.22;;;;;;;;;;4957284;29;20062;-57
2024/01/03 06:30:18;;;;;;;9.25;2.33;;;;;;;;;;4960381;29;20035;-55
2024/01/03 06:32:44;;;;;;;14.55;2.30;;;;;;;;;;4948894;29;20039;-54
2024/01/03 06:35:10;;;;;;;7.13;1.83;;;;;;;;;;4958156;29;20079;-53
2024/01/03 06:37:35;;;;;;;6.28;1.30;;;;;;;;;;4961683;29;20273;-55
2024/01/03 06:40:00;;;;;;;5.97;1.50;;;;;;;;;;4960028;29;20040;-56
2024/01/03 06:42:25;;;;;;;6.17;1.50;;;;;;;;;;4961908;29;20044;-56
2024/01/03 06:44:51;;;;;;;6.67;1.33;;;;;;;;;;4963456;28;20024;-56
2024/01/03 06:47:16;;;;;;;8.82;1.98;;;;;;;;;;4964299;29;20067;-53
2024/01/03 06:49:42;;;;;;;2.33;0.70;;;;;;;;;;4964216;29;20036;-56
2024/01/03 06:52:07;;;;;;;7.37;1.00;;;;;;;;;;4968014;29;20039;-56
2024/01/03 06:54:33;;;;;;;;;;;;;;;;;;4969084;29;20042;-52
2024/01/03 06:56:59;;;;;;;11.10;0.97;;;;;;;;;;4951195;29;19910;-53
2024/01/03 06:59:24;;;;;;;1.90;0.47;;;;;;;;;;4959932;29;20045;-56
2024/01/03 07:01:50;;;;;;;4.17;1.00;;;;;;;;;;4962290;29;20064;-56
2024/01/03 07:04:15;;;;;;;3.37;0.90;;;;;;;;;;4959479;29;20036;-55
2024/01/03 07:06:41;;;;;;;5.10;0.82;;;;;;;;;;4959012;29;20039;-53
2024/01/03 07:09:08;;;;;;;3.03;0.60;;;;;;;;;;4966992;29;20054;-56
2024/01/03 07:11:33;;;;;;;6.63;0.90;;;;;;;;;;4951995;29;20277;-56
2024/01/03 07:13:59;;;;;;;4.70;0.83;;;;;;;;;;4959399;29;20361;-55
2024/01/03 07:16:26;;;;;;;4.28;0.68;;;;;;;;;;4967471;29;20035;-56
2024/01/03 07:18:51;;;;;;;6.72;0.82;;;;;;;;;;4967077;29;20062;-51
2024/01/03 07:21:16;;;;;;;3.33;0.80;;;;;;;;;;4966973;29;20027;-55
2024/01/03 07:23:42;;;;;;;1.23;0.47;;;;;;;;;;4957970;29;20031;-57
2024/01/03 07:26:07;;;;;;;4.17;0.50;;;;;;;;;;4964353;29;20288;-55
2024/01/03 07:28:33;;;;;;;1.98;0.88;;;;;;;;;;4964790;29;20032;-53
2024/01/03 07:30:58;;;;;;;1.47;0.40;;;;;;;;;;4947140;29;20043;-54
2024/01/03 07:33:24;;;;;;;2.90;0.77;;;;;;;;;;4945765;29;20043;-56
2024/01/03 07:35:49;;;;;;;4.18;0.50;;;;;;;;;;4964147;29;20043;-53
2024/01/03 07:38:15;;;;;;;1.35;0.35;;;;;;;;;;4969737;29;20023;-53
2024/01/03 07:40:40;;;;;;;3.60;1.37;;;;;;;;;;4962553;29;20067;-54
2024/01/03 07:43:06;;;;;;;2.57;0.43;;;;;;;;;;4967246;29;20290;-54
2024/01/03 07:45:34;;;;;;;1.35;0.60;;;;;;;;;;4961177;29;20091;-51
2024/01/03 07:48:00;;;;;;;2.43;0.73;;;;;;;;;;4957273;29;20043;-52
2024/01/03 07:50:26;;;;;;;4.83;0.93;;;;;;;;;;4959804;29;20325;-55
2024/01/03 07:52:51;;;;;;;4.40;0.63;;;;;;;;;;4969068;29;20046;-54
2024/01/03 07:55:17;;;;;;;6.00;0.98;;;;;;;;;;4957307;29;20039;-54
2024/01/03 07:57:42;;;;;;;11.37;1.40;;;;;;;;;;4958771;29;20063;-54
2024/01/03 08:00:08;;;;;;;4.82;0.95;;;;;;;;;;4965742;29;20035;-54
2024/01/03 08:02:34;;;;;;;8.98;1.95;;;;;;;;;;4957273;29;20108;-56
2024/01/03 08:04:59;;;;;;;9.03;1.93;;;;;;;;;;4957186;29;20036;-53
2024/01/03 08:07:25;;;;;;;13.30;2.80;;;;;;;;;;4958846;29;20059;-51
2024/01/03 08:09:51;;;;;;;7.63;1.33;;;;;;;;;;4960250;29;20028;-53
2024/01/03 08:12:16;;;;;;;16.08;2.10;;;;;;;;;;4970610;29;20059;-54
2024/01/03 08:14:42;;;;;;;11.18;1.80;;;;;;;;;;4964209;29;20042;-51
2024/01/03 08:17:07;;;;;;;9.67;2.70;;;;;;;;;;4967453;29;20028;-51
2024/01/03 08:19:34;;;;;;;10.52;2.85;;;;;;;;;;4957231;29;20032;-55
2024/01/03 08:21:59;;;;;;;;;;;;;;;;;;4959595;29;20042;-54
2024/01/03 08:24:26;;;;;;;8.37;2.00;;;;;;;;;;4958426;29;19911;-53
2024/01/03 08:26:52;;;;;;;10.03;2.63;;;;;;;;;;4970387;29;20094;-54
2024/01/03 08:29:17;;;;;;;11.23;2.67;;;;;;;;;;4967641;29;20311;-55
2024/01/03 08:31:43;;;;;;;9.27;2.67;;;;;;;;;;4967152;29;20040;-54
2024/01/03 08:34:08;;;;;;;19.35;3.22;;;;;;;;;;4966236;29;20060;-55
2024/01/03 08:36:41;;;;;;;6.83;1.80;;;;;;;;;;4958251;29;20027;-55
2024/01/03 08:39:07;;;;;;;18.33;2.90;;;;;;;;;;4954916;29;20270;-56
2024/01/03 08:41:33;;;;;;;19.17;3.20;;;;;;;;;;4966981;29;20261;-55
2024/01/03 08:43:58;;;;;;;18.63;2.87;;;;;;;;;;4959166;29;20028;-52
2024/01/03 08:46:30;;;;;;;10.73;1.95;;;;;;;;;;4965623;29;20067;-51
2024/01/03 08:48:55;;;;;;;12.63;2.50;;;;;;;;;;4958114;29;20050;-53
2024/01/03 08:51:22;;;;;;;9.77;2.63;;;;;;;;;;4964965;29;20261;-55
2024/01/03 08:53:48;;;;;;;18.17;3.60;;;;;;;;;;4958560;29;20040;-52
2024/01/03 08:56:14;;;;;;;9.47;2.77;;;;;;;;;;4959974;29;20270;-54
2024/01/03 08:58:40;;;;;;;14.48;3.13;;;;;;;;;;4963981;29;20030;-54
2024/01/03 09:01:05;;;;;;;13.13;2.53;;;;;;;;;;4958680;29;20036;-56
2024/01/03 09:03:31;;;;;;;10.47;2.40;;;;;;;;;;4974839;29;20273;-57
2024/01/03 09:05:56;;;;;;;12.47;3.40;;;;;;;;;;4968040;29;20266;-53
2024/01/03 09:08:22;;;;;;;13.30;3.10;;;;;;;;;;4960499;29;20266;-54
2024/01/03 09:10:48;;;;;;;18.27;3.75;;;;;;;;;;4960404;29;20040;-55
2024/01/03 09:13:14;;;;;;;20.23;3.10;;;;;;;;;;4963012;29;20038;-55
2024/01/03 09:15:39;;;;;;;19.13;4.07;;;;;;;;;;4964891;29;20027;-54
2024/01/03 09:18:04;;;;;;;17.77;3.33;;;;;;;;;;4964898;29;20067;-54
2024/01/03 09:20:29;;;;;;;18.00;3.10;;;;;;;;;;4967302;29;20047;-52
2024/01/03 09:22:55;;;;;;;16.58;3.88;;;;;;;;;;4962856;29;20032;-57
2024/01/03 09:25:20;;;;;;;21.10;3.73;;;;;;;;;;4965242;29;20049;-57
2024/01/03 09:27:46;;;;;;;21.80;3.57;;;;;;;;;;4970182;29;20265;-58
2024/01/03 09:30:11;;;;;;;25.00;3.83;;;;;;;;;;4972786;29;20035;-57
2024/01/03 09:32:36;;;;;;;30.67;4.57;;;;;;;;;;4960097;29;20043;-52
2024/01/03 09:35:02;;;;;;;21.80;5.03;;;;;;;;;;4943215;29;20027;-54
2024/01/03 09:37:31;;;;;;;34.47;5.10;;;;;;;;;;4976750;29;20042;-52
2024/01/03 09:39:56;;;;;;;29.40;5.03;;;;;;;;;;4973219;29;20027;-57
2024/01/03 09:42:22;;;;;;;25.67;4.38;;;;;;;;;;4969135;29;20286;-56
2024/01/03 09:44:48;;;;;;;23.65;4.25;;;;;;;;;;4960878;29;20035;-54
2024/01/03 09:47:14;;;;;;;24.17;4.80;;;;;;;;;;4947564;29;20036;-56
2024/01/03 09:49:39;;;;;;;31.83;4.30;;;;;;;;;;4970249;29;20040;-51
2024/01/03 09:52:05;;;;;;;42.97;6.00;;;;;;;;;;4959573;29;20056;-50
2024/01/03 09:54:31;;;;;;;25.27;5.63;;;;;;;;;;4962641;29;20508;-56
2024/01/03 09:56:56;;;;;;;31.02;4.90;;;;;;;;;;4962646;29;20028;-53
2024/01/03 09:59:22;;;;;;;34.25;5.18;;;;;;;;;;4961398;29;20039;-54
2024/01/03 10:01:55;;;;;;;36.20;5.10;;;;;;;;;;4959705;29;20031;-53
2024/01/03 10:04:20;;;;;;;32.37;4.93;;;;;;;;;;4959457;29;20038;-53
2024/01/03 10:06:57;;;;;;;34.95;6.32;;;;;;;;;;4961523;29;20258;-52
2024/01/03 10:09:23;;;;;;;18.30;4.72;;;;;;;;;;4966214;29;20035;-55
2024/01/03 10:11:51;;;;;;;50.58;8.07;;;;;;;;;;4958869;29;20055;-53
2024/01/03 10:14:17;;;;;;;31.13;4.70;;;;;;;;;;4957655;29;20032;-53
2024/01/03 10:16:44;;;;;;;42.63;5.40;;;;;;;;;;4959362;29;20262;-56
2024/01/03 10:19:11;;;;;;;38.97;4.40;;;;;;;;;;4947620;29;20286;-57
2024/01/03 10:21:38;;;;;;;34.33;4.80;;;;;;;;;;4964886;29;20036;-54
2024/01/03 10:24:05;;;;;;;34.27;5.13;;;;;;;;;;4959393;29;20329;-54
2024/01/03 10:26:31;;;;;;;26.00;5.13;;;;;;;;;;4972840;29;20257;-54
2024/01/03 10:29:16;;;;;;;31.37;7.40;;;;;;;;;;4962523;29;20298;-57
2024/01/03 10:31:43;;;;;;;28.37;6.10;;;;;;;;;;4962408;29;20055;-56
2024/01/03 10:34:17;;;;;;;28.25;5.32;;;;;;;;;;4959025;29;20318;-56
2024/01/03 10:36:43;;;;;;;31.67;4.63;;;;;;;;;;4949025;29;20035;-55
2024/01/03 10:39:14;;;;;;;34.45;4.85;;;;;;;;;;4970964;29;20277;-54
2024/01/03 10:41:43;;;;;;;39.90;6.20;;;;;;;;;;4959903;29;20028;-53
2024/01/03 10:44:11;;;;;;;61.30;9.57;;;;;;;;;;4960341;29;20269;-55
2024/01/03 10:46:36;;;;;;;26.20;5.93;;;;;;;;;;4962004;29;20300;-56
2024/01/03 10:49:03;;;;;;;51.60;7.20;;;;;;;;;;4962589;29;20027;-54
2024/01/03 10:51:31;;;;;;;39.00;6.40;;;;;;;;;;4958623;29;20028;-56
2024/01/03 10:53:58;;;;;;;39.33;6.90;;;;;;;;;;4958476;29;20312;-55
2024/01/03 10:56:24;;;;;;;40.87;5.60;;;;;;;;;;4965980;29;20349;-54
2024/01/03 10:58:50;;;;;;;23.57;4.37;;;;;;;;;;4959953;29;20277;-56
2024/01/03 11:01:36;;;;;;;33.35;4.32;;;;;;;;;;4971594;29;20274;-52
2024/01/03 11:04:21;;;;;;;32.87;5.13;;;;;;;;;;4958222;29;20035;-56
2024/01/03 11:06:58;;;;;;;33.20;4.80;;;;;;;;;;4963780;29;20268;-56
2024/01/03 11:09:25;;;;;;;;;;;;;;;;;;4966848;29;20294;-56
2024/01/03 11:12:04;;;;;;;33.55;5.22;;;;;;;;;;4958616;29;19911;-55
2024/01/03 11:14:30;;;;;;;29.80;4.43;;;;;;;;;;4958083;29;20055;-53
2024/01/03 11:16:55;;;;;;;33.78;4.50;;;;;;;;;;4943239;29;20327;-55
2024/01/03 11:19:29;;;;;;;29.67;5.07;;;;;;;;;;4964618;28;20130;-54
2024/01/03 11:21:54;;;;;;;27.60;5.27;;;;;;;;;;4964281;29;20046;-54
2024/01/03 11:24:20;;;;;;;;;;;;;;;;;;4957855;29;20306;-55
2024/01/03 11:26:52;;;;;;;31.43;5.20;;;;;;;;;;4957932;29;19999;-53
2024/01/03 11:29:36;;;;;;;29.10;5.43;;;;;;;;;;4966684;29;20035;-52
2024/01/03 11:32:07;;;;;;;38.43;5.53;;;;;;;;;;4957705;29;20269;-50
2024/01/03 11:34:36;;;;;;;37.80;5.00;;;;;;;;;;4957879;29;20273;-53
2024/01/03 11:37:02;;;;;;;34.73;5.80;;;;;;;;;;4956834;29;20258;-56
2024/01/03 11:39:41;;;;;;;37.40;5.28;;;;;;;;;;4972734;29;20269;-54
2024/01/03 11:42:06;;;;;;;35.90;5.70;;;;;;;;;;4957892;29;20124;-56
2024/01/03 11:44:32;;;;;;;34.13;5.20;;;;;;;;;;4957363;29;20270;-57
2024/01/03 11:47:02;;;;;;;34.80;5.47;;;;;;;;;;4960765;29;20298;-55
2024/01/03 11:49:28;;;;;;;36.87;6.63;;;;;;;;;;4968230;29;20028;-55
2024/01/03 11:51:55;;;;;;;34.23;5.67;;;;;;;;;;4958803;29;20297;-51
2024/01/03 11:54:20;;;;;;;40.63;6.87;;;;;;;;;;4957457;29;20250;-53
2024/01/03 11:56:46;;;;;;;44.43;7.23;;;;;;;;;;4957851;29;20359;-57
2024/01/03 11:59:11;;;;;;;22.53;4.70;;;;;;;;;;4958564;29;20032;-56
2024/01/03 12:01:37;;;;;;;15.90;3.55;;;;;;;;;;4965861;29;20040;-56
2024/01/03 12:04:09;;;;;;;24.07;4.63;;;;;;;;;;4940276;29;20067;-55
2024/01/03 12:06:34;;;;;;;23.50;4.73;;;;;;;;;;4961598;29;20099;-57
2024/01/03 12:09:00;;;;;;;22.15;3.80;;;;;;;;;;4964941;29;20027;-55
2024/01/03 12:11:25;;;;;;;19.33;3.30;;;;;;;;;;4957338;29;20126;-54
2024/01/03 12:13:51;;;;;;;17.10;3.05;;;;;;;;;;4964094;29;20100;-56
2024/01/03 12:16:16;;;;;;;17.98;3.22;;;;;;;;;;4966156;29;20043;-55
2024/01/03 12:18:49;;;;;;;14.80;3.27;;;;;;;;;;4962160;29;20091;-58
2024/01/03 12:21:14;;;;;;;12.83;3.07;;;;;;;;;;4960351;29;20038;-56
2024/01/03 12:23:52;;;;;;;10.60;1.67;;;;;;;;;;4956825;29;20035;-56
2024/01/03 12:26:17;;;;;;;10.97;2.30;;;;;;;;;;4957121;29;20040;-57
2024/01/03 12:28:43;;;;;;;12.45;1.83;;;;;;;;;;4965497;29;20028;-55
2024/01/03 12:31:18;;;;;;;16.35;2.78;;;;;;;;;;4963092;29;20035;-53
2024/01/03 12:33:44;;;;;;;11.30;1.97;;;;;;;;;;4960456;29;20047;-55
2024/01/03 12:36:10;;;;;;;11.20;2.58;;;;;;;;;;4956346;29;20273;-54
2024/01/03 12:38:35;;;;;;;11.77;2.60;;;;;;;;;;4963106;29;20036;-56
2024/01/03 12:41:01;;;;;;;15.83;2.43;;;;;;;;;;4960078;29;20038;-54
2024/01/03 12:43:26;;;;;;;12.17;3.13;;;;;;;;;;4955700;29;20039;-55
2024/01/03 12:45:51;;;;;;;8.87;1.60;;;;;;;;;;4973990;29;20094;-54
2024/01/03 12:48:16;;;;;;;10.10;1.83;;;;;;;;;;4963163;29;20055;-54
2024/01/03 12:50:43;;;;;;;10.57;1.90;;;;;;;;;;4961334;29;20039;-55
2024/01/03 12:53:08;;;;;;;16.83;2.13;;;;;;;;;;4968127;29;20032;-57
2024/01/03 12:55:34;;;;;;;14.23;2.60;;;;;;;;;;4968556;29;20098;-56
2024/01/03 12:57:59;;;;;;;12.30;2.77;;;;;;;;;;4956991;29;20064;-53
2024/01/03 13:00:25;;;;;;;22.23;3.00;;;;;;;;;;4961455;29;20031;-58
2024/01/03 13:02:50;;;;;;;15.43;2.33;;;;;;;;;;4956014;29;20068;-56
2024/01/03 13:05:15;;;;;;;16.80;3.07;;;;;;;;;;4968709;29;20035;-53
2024/01/03 13:07:41;;;;;;;18.23;2.43;;;;;;;;;;4959268;29;20043;-54
2024/01/03 13:10:06;;;;;;;10.93;2.00;;;;;;;;;;4963272;29;20048;-56
2024/01/03 13:12:32;;;;;;;19.63;2.63;;;;;;;;;;4956677;29;20032;-55
2024/01/03 13:14:57;;;;;;;12.18;2.17;;;;;;;;;;4956506;29;20329;-52
2024/01/03 13:17:25;;;;;;;27.30;5.53;;;;;;;;;;4956410;29;20036;-54
2024/01/03 13:19:51;;;;;;;14.87;2.50;;;;;;;;;;4961848;29;20051;-56
2024/01/03 13:22:17;;;;;;;15.45;2.30;;;;;;;;;;4960216;29;20270;-56
2024/01/03 13:24:43;;;;;;;16.47;3.53;;;;;;;;;;4956472;29;20187;-54
2024/01/03 13:27:08;;;;;;;17.50;2.77;;;;;;;;;;4956311;29;20289;-56
2024/01/03 13:29:34;;;;;;;24.77;3.60;;;;;;;;;;4963364;29;20035;-51
2024/01/03 13:31:59;;;;;;;20.33;4.13;;;;;;;;;;4956585;29;20036;-51
2024/01/03 13:34:25;;;;;;;19.80;2.70;;;;;;;;;;4956527;29;20038;-49
2024/01/03 13:36:50;;;;;;;23.63;3.50;;;;;;;;;;4939637;29;20088;-52
2024/01/03 13:39:15;;;;;;;14.65;3.35;;;;;;;;;;4960184;29;20042;-57
2024/01/03 13:41:41;;;;;;;20.83;5.37;;;;;;;;;;4947158;29;20100;-54
2024/01/03 13:44:07;;;;;;;32.30;5.07;;;;;;;;;;4956511;29;20046;-54
2024/01/03 13:46:32;;;;;;;23.63;3.72;;;;;;;;;;4956052;29;20028;-54
2024/01/03 13:48:57;;;;;;;19.67;4.07;;;;;;;;;;4959793;29;20036;-57
2024/01/03 13:51:24;;;;;;;23.80;4.25;;;;;;;;;;4963806;29;20036;-57
2024/01/03 13:53:50;;;;;;;16.88;3.95;;;;;;;;;;4959936;29;20043;-57
2024/01/03 13:56:23;;;;;;;33.20;4.50;;;;;;;;;;4959606;29;20032;-56
2024/01/03 13:58:49;;;;;;;19.33;4.10;;;;;;;;;;4960656;29;20089;-57
2024/01/03 14:01:16;;;;;;;13.97;3.20;;;;;;;;;;4962051;29;20266;-56
2024/01/03 14:03:42;;;;;;;13.40;2.83;;;;;;;;;;4959442;29;20282;-57
2024/01/03 14:06:08;;;;;;;15.00;2.40;;;;;;;;;;4960235;29;20028;-54
2024/01/03 14:08:36;;;;;;;12.07;2.47;;;;;;;;;;4965940;29;20040;-56
2024/01/03 14:11:02;;;;;;;12.07;2.20;;;;;;;;;;4959064;29;20285;-57
2024/01/03 14:13:28;;;;;;;9.15;1.45;;;;;;;;;;4959445;29;20277;-53
2024/01/03 14:15:54;;;;;;;6.43;1.77;;;;;;;;;;4959249;29;20066;-54
2024/01/03 14:18:19;;;;;;;10.20;1.70;;;;;;;;;;4963544;29;20024;-55
2024/01/03 14:20:45;;;;;;;7.37;1.83;;;;;;;;;;4961353;29;20095;-56
2024/01/03 14:23:13;;;;;;;10.17;1.83;;;;;;;;;;4958875;29;20266;-57
2024/01/03 14:25:39;;;;;;;10.07;1.30;;;;;;;;;;4954630;29;20265;-56
2024/01/03 14:28:05;;;;;;;13.27;1.87;;;;;;;;;;4962403;29;20309;-56